Time;durP1;ratioP1;P1;durP2;ratioP2;P2;SDS_P1;SDS_P2;PMS_P1;PMS_P2;Temp;Humidity;BMP_temperature;BMP_pressure;BME280_temperature;BME280_humidity;BME280_pressure;Samples;Min_cycle;Max_cycle;Signal;HPM_P1;HPM_P2
2022/05/19 00:01:29;;;;;;;10.38;9.40;;;;;;;;;;5063836;28;20104;-83
2022/05/19 00:03:56;;;;;;;11.10;9.75;;;;;;;;;;5067613;28;20048;-83
2022/05/19 00:06:23;;;;;;;10.98;9.90;;;;;;;;;;5067272;28;20110;-83
2022/05/19 00:08:51;;;;;;;11.68;10.20;;;;;;;;;;5067496;28;20536;-83
2022/05/19 00:11:20;;;;;;;17.88;11.18;;;;;;;;;;5069262;28;20048;-83
2022/05/19 00:13:47;;;;;;;11.95;10.75;;;;;;;;;;5068887;28;20079;-83
2022/05/19 00:16:15;;;;;;;13.20;10.57;;;;;;;;;;5068833;28;20072;-84
2022/05/19 00:18:42;;;;;;;14.45;12.00;;;;;;;;;;5072061;28;20113;-84
2022/05/19 00:21:09;;;;;;;11.88;10.32;;;;;;;;;;5072671;28;20067;-83
2022/05/19 00:23:36;;;;;;;12.30;10.50;;;;;;;;;;5070834;28;20044;-82
2022/05/19 00:26:04;;;;;;;11.02;9.73;;;;;;;;;;5070348;28;20053;-83
2022/05/19 00:28:31;;;;;;;12.07;10.98;;;;;;;;;;5071944;28;20060;-84
2022/05/19 00:30:58;;;;;;;14.52;10.82;;;;;;;;;;5088443;28;20052;-83
2022/05/19 00:33:25;;;;;;;11.15;10.05;;;;;;;;;;5070063;28;20063;-83
2022/05/19 00:35:52;;;;;;;11.07;9.95;;;;;;;;;;5069245;28;20075;-83
2022/05/19 00:38:20;;;;;;;11.35;10.05;;;;;;;;;;5071404;28;20045;-84
2022/05/19 00:40:51;;;;;;;10.90;9.82;;;;;;;;;;5088709;28;20051;-84
2022/05/19 00:43:32;;;;;;;12.23;10.45;;;;;;;;;;5072460;28;20048;-84
2022/05/19 00:46:02;;;;;;;12.10;11.05;;;;;;;;;;5072934;28;20072;-84
2022/05/19 00:48:37;;;;;;;13.23;11.90;;;;;;;;;;5090847;28;20048;-85
2022/05/19 00:51:07;;;;;;;14.10;11.10;;;;;;;;;;5080193;28;20060;-83
2022/05/19 00:53:46;;;;;;;12.07;10.85;;;;;;;;;;5096185;28;20070;-85
2022/05/19 00:56:34;;;;;;;15.15;12.00;;;;;;;;;;5071102;28;20045;-84
2022/05/19 00:59:03;;;;;;;13.27;11.98;;;;;;;;;;5071707;28;20106;-85
2022/05/19 01:01:30;;;;;;;13.95;10.68;;;;;;;;;;5068103;28;20091;-85
2022/05/19 01:04:01;;;;;;;12.85;11.25;;;;;;;;;;5069228;28;20494;-83
2022/05/19 01:06:30;;;;;;;15.57;11.25;;;;;;;;;;5068053;28;20102;-83
2022/05/19 01:09:06;;;;;;;14.55;10.32;;;;;;;;;;5068112;28;20091;-83
2022/05/19 01:11:36;;;;;;;11.68;10.48;;;;;;;;;;5067743;28;20044;-84
2022/05/19 01:14:04;;;;;;;11.93;10.93;;;;;;;;;;5085555;28;20075;-83
2022/05/19 01:16:32;;;;;;;14.23;10.70;;;;;;;;;;5066352;28;20064;-83
2022/05/19 01:19:00;;;;;;;12.00;10.50;;;;;;;;;;5066805;28;20052;-84
2022/05/19 01:21:28;;;;;;;12.00;10.68;;;;;;;;;;5066738;28;20113;-83
2022/05/19 01:23:56;;;;;;;11.38;10.38;;;;;;;;;;5068306;28;20072;-83
2022/05/19 01:26:29;;;;;;;11.88;10.68;;;;;;;;;;5086401;28;20510;-85
2022/05/19 01:28:58;;;;;;;12.77;10.50;;;;;;;;;;5067664;28;20048;-83
2022/05/19 01:31:28;;;;;;;10.57;9.55;;;;;;;;;;5069123;28;20053;-83
2022/05/19 01:33:56;;;;;;;11.80;10.70;;;;;;;;;;5067885;28;20063;-83
2022/05/19 01:36:23;;;;;;;13.43;11.23;;;;;;;;;;5066240;28;20503;-83
2022/05/19 01:39:10;;;;;;;11.30;10.07;;;;;;;;;;5068283;28;20486;-83
2022/05/19 01:41:47;;;;;;;11.95;9.98;;;;;;;;;;5067800;28;20071;-83
2022/05/19 01:44:20;;;;;;;16.17;11.23;;;;;;;;;;5067518;28;20520;-83
2022/05/19 01:46:50;;;;;;;12.73;10.68;;;;;;;;;;5084863;28;20049;-84
2022/05/19 01:49:28;;;;;;;13.13;10.48;;;;;;;;;;5067026;28;20048;-83
2022/05/19 01:52:02;;;;;;;12.45;10.45;;;;;;;;;;5066627;28;20075;-83
2022/05/19 01:54:46;;;;;;;10.52;9.52;;;;;;;;;;5067901;28;20052;-84
2022/05/19 01:57:16;;;;;;;17.95;9.95;;;;;;;;;;5067081;28;20405;-82
2022/05/19 01:59:45;;;;;;;15.35;9.98;;;;;;;;;;5067473;28;20048;-84
2022/05/19 02:02:28;;;;;;;11.20;10.10;;;;;;;;;;5066082;28;20163;-83
2022/05/19 02:04:58;;;;;;;10.00;8.95;;;;;;;;;;5085589;28;20098;-83
2022/05/19 02:07:27;;;;;;;9.80;8.90;;;;;;;;;;5065389;28;20049;-83
2022/05/19 02:09:56;;;;;;;10.40;9.18;;;;;;;;;;5067170;28;20068;-83
2022/05/19 02:12:24;;;;;;;10.57;9.60;;;;;;;;;;5067240;28;20053;-82
2022/05/19 02:14:57;;;;;;;10.50;9.40;;;;;;;;;;5085111;28;20414;-83
2022/05/19 02:17:25;;;;;;;;;;;;;;;;;;5068181;28;20054;-82
2022/05/19 02:19:55;;;;;;;10.48;9.40;;;;;;;;;;5068756;28;20019;-82
2022/05/19 02:22:23;;;;;;;14.43;10.85;;;;;;;;;;5068218;28;20151;-82
2022/05/19 02:24:54;;;;;;;14.00;11.18;;;;;;;;;;5068097;28;20040;-82
2022/05/19 02:27:31;;;;;;;10.25;9.20;;;;;;;;;;5068781;28;20387;-82
2022/05/19 02:29:59;;;;;;;13.70;10.80;;;;;;;;;;5085123;28;20075;-83
2022/05/19 02:32:27;;;;;;;13.55;11.18;;;;;;;;;;5068253;28;20076;-83
2022/05/19 02:34:54;;;;;;;14.63;10.63;;;;;;;;;;5069385;28;20045;-84
2022/05/19 02:37:21;;;;;;;11.32;9.75;;;;;;;;;;5087725;28;20071;-83
2022/05/19 02:39:48;;;;;;;12.13;10.68;;;;;;;;;;5067886;28;20071;-84
2022/05/19 02:42:15;;;;;;;11.10;10.10;;;;;;;;;;5070591;28;20044;-83
2022/05/19 02:44:42;;;;;;;11.38;10.27;;;;;;;;;;5069876;28;20131;-83
2022/05/19 02:47:10;;;;;;;12.80;10.85;;;;;;;;;;5071262;28;20048;-84
2022/05/19 02:49:37;;;;;;;10.93;9.82;;;;;;;;;;5070943;28;20049;-84
2022/05/19 02:52:04;;;;;;;11.38;10.23;;;;;;;;;;5071365;28;20106;-84
2022/05/19 02:54:31;;;;;;;11.73;10.52;;;;;;;;;;5072181;28;20056;-84
2022/05/19 02:56:58;;;;;;;12.57;10.70;;;;;;;;;;5070143;28;20075;-84
2022/05/19 02:59:26;;;;;;;10.77;9.88;;;;;;;;;;5064558;28;20048;-84
2022/05/19 03:01:53;;;;;;;12.88;10.20;;;;;;;;;;5083039;28;20106;-84
2022/05/19 03:04:20;;;;;;;12.15;10.15;;;;;;;;;;5088624;28;20075;-84
2022/05/19 03:06:47;;;;;;;14.85;10.07;;;;;;;;;;5072633;28;20098;-83
2022/05/19 03:09:14;;;;;;;11.35;10.13;;;;;;;;;;5078337;28;20055;-83
2022/05/19 03:11:42;;;;;;;13.38;10.30;;;;;;;;;;5069218;28;20060;-83
2022/05/19 03:14:09;;;;;;;11.35;9.75;;;;;;;;;;5067761;28;20052;-82
2022/05/19 03:16:38;;;;;;;13.43;9.85;;;;;;;;;;5066579;28;20112;-84
2022/05/19 03:19:05;;;;;;;11.23;10.05;;;;;;;;;;5067790;28;20071;-82
2022/05/19 03:21:33;;;;;;;10.65;9.70;;;;;;;;;;5067923;28;20048;-83
2022/05/19 03:24:00;;;;;;;12.73;9.82;;;;;;;;;;5085397;28;20497;-83
2022/05/19 03:26:27;;;;;;;13.27;11.02;;;;;;;;;;5085268;28;20048;-83
2022/05/19 03:28:54;;;;;;;11.77;10.57;;;;;;;;;;5068714;28;20056;-84
2022/05/19 03:31:22;;;;;;;11.98;10.77;;;;;;;;;;5069345;28;20143;-83
2022/05/19 03:33:49;;;;;;;11.43;10.35;;;;;;;;;;5069374;28;20048;-83
2022/05/19 03:36:16;;;;;;;13.98;10.43;;;;;;;;;;5070023;28;20136;-83
2022/05/19 03:38:44;;;;;;;11.40;9.98;;;;;;;;;;5071047;28;20075;-84
2022/05/19 03:41:11;;;;;;;17.17;12.73;;;;;;;;;;5071165;28;20048;-84
2022/05/19 03:43:38;;;;;;;19.75;15.93;;;;;;;;;;5071726;28;20086;-84
2022/05/19 03:46:05;;;;;;;17.35;15.07;;;;;;;;;;5070736;28;20059;-85
2022/05/19 03:48:33;;;;;;;18.50;15.15;;;;;;;;;;5071154;28;20062;-84
2022/05/19 03:51:02;;;;;;;16.13;14.60;;;;;;;;;;5066924;28;20056;-82
2022/05/19 03:53:30;;;;;;;16.73;14.98;;;;;;;;;;5066608;28;20078;-82
2022/05/19 03:55:57;;;;;;;13.63;12.30;;;;;;;;;;5066947;28;20051;-83
2022/05/19 03:58:24;;;;;;;12.98;11.65;;;;;;;;;;5066220;28;20052;-82
2022/05/19 04:00:51;;;;;;;13.15;11.77;;;;;;;;;;5066610;28;20041;-82
2022/05/19 04:03:18;;;;;;;17.25;14.05;;;;;;;;;;5066968;28;20139;-84
2022/05/19 04:05:46;;;;;;;20.90;15.50;;;;;;;;;;5066278;28;20083;-83
2022/05/19 04:08:14;;;;;;;17.98;16.02;;;;;;;;;;5066656;28;20106;-83
2022/05/19 04:10:44;;;;;;;17.95;14.35;;;;;;;;;;5066507;28;20116;-84
2022/05/19 04:13:12;;;;;;;24.90;20.63;;;;;;;;;;5066927;28;20079;-83
2022/05/19 04:15:39;;;;;;;20.42;16.75;;;;;;;;;;5084930;28;20064;-82
2022/05/19 04:18:06;;;;;;;15.32;13.75;;;;;;;;;;5065954;28;20053;-82
2022/05/19 04:20:34;;;;;;;12.40;11.13;;;;;;;;;;5067028;28;20112;-82
2022/05/19 04:23:02;;;;;;;11.07;10.05;;;;;;;;;;5068144;28;20040;-82
2022/05/19 04:25:29;;;;;;;12.63;11.35;;;;;;;;;;5067371;28;20044;-83
2022/05/19 04:27:57;;;;;;;10.27;9.13;;;;;;;;;;5066654;28;20045;-84
2022/05/19 04:30:25;;;;;;;11.88;10.75;;;;;;;;;;5068329;28;20445;-82
2022/05/19 04:32:52;;;;;;;10.70;9.80;;;;;;;;;;5068049;28;20452;-82
2022/05/19 04:35:19;;;;;;;9.80;8.65;;;;;;;;;;5065586;28;20092;-82
2022/05/19 04:37:47;;;;;;;14.02;8.55;;;;;;;;;;5066627;28;20047;-83
2022/05/19 04:40:14;;;;;;;12.23;7.88;;;;;;;;;;5085696;28;20048;-83
2022/05/19 04:42:42;;;;;;;9.48;7.70;;;;;;;;;;5068238;28;20142;-83
2022/05/19 04:45:10;;;;;;;10.73;9.30;;;;;;;;;;5069159;28;20051;-84
2022/05/19 04:47:37;;;;;;;14.20;7.47;;;;;;;;;;5067972;28;20060;-83
2022/05/19 04:50:05;;;;;;;7.68;6.70;;;;;;;;;;5067102;28;20052;-85
2022/05/19 04:52:32;;;;;;;6.35;5.75;;;;;;;;;;5065552;28;20076;-82
2022/05/19 04:55:00;;;;;;;7.70;5.80;;;;;;;;;;5081872;28;20109;-82
2022/05/19 04:57:34;;;;;;;5.88;5.28;;;;;;;;;;5065335;28;20087;-82
2022/05/19 05:00:01;;;;;;;5.10;4.60;;;;;;;;;;5062769;28;20084;-83
2022/05/19 05:02:28;;;;;;;7.82;5.15;;;;;;;;;;5062749;28;20041;-83
2022/05/19 05:04:55;;;;;;;5.70;4.45;;;;;;;;;;5066120;28;20054;-82
2022/05/19 05:07:23;;;;;;;9.90;4.40;;;;;;;;;;5067657;28;20048;-83
2022/05/19 05:09:50;;;;;;;5.00;4.55;;;;;;;;;;5070185;28;20048;-82
2022/05/19 05:12:17;;;;;;;4.10;3.70;;;;;;;;;;5069974;28;20049;-82
2022/05/19 05:14:44;;;;;;;5.40;4.70;;;;;;;;;;5069905;28;20091;-83
2022/05/19 05:17:15;;;;;;;4.35;3.95;;;;;;;;;;5089580;28;20044;-85
2022/05/19 05:19:42;;;;;;;11.13;3.63;;;;;;;;;;5070694;28;20409;-84
2022/05/19 05:22:09;;;;;;;3.50;3.20;;;;;;;;;;5088930;28;20049;-84
2022/05/19 05:24:37;;;;;;;5.72;3.90;;;;;;;;;;5071463;28;20045;-83
2022/05/19 05:27:05;;;;;;;6.13;3.60;;;;;;;;;;5078619;28;20045;-82
2022/05/19 05:29:33;;;;;;;8.18;3.00;;;;;;;;;;5067659;28;20052;-84
2022/05/19 05:32:00;;;;;;;5.53;2.53;;;;;;;;;;5066497;28;20110;-83
2022/05/19 05:34:27;;;;;;;3.50;2.55;;;;;;;;;;5063794;28;20520;-83
2022/05/19 05:36:54;;;;;;;8.35;3.10;;;;;;;;;;5063881;28;20080;-83
2022/05/19 05:39:21;;;;;;;8.70;2.70;;;;;;;;;;5064163;28;20087;-84
2022/05/19 05:41:48;;;;;;;9.65;2.90;;;;;;;;;;5084244;28;20128;-83
2022/05/19 05:44:16;;;;;;;6.28;2.58;;;;;;;;;;5066242;28;20048;-83
2022/05/19 05:46:44;;;;;;;9.95;3.15;;;;;;;;;;5066280;28;20082;-84
2022/05/19 05:49:12;;;;;;;12.75;3.15;;;;;;;;;;5064786;28;20059;-83
2022/05/19 05:51:39;;;;;;;7.55;3.00;;;;;;;;;;5064250;28;20052;-83
2022/05/19 05:54:06;;;;;;;14.52;3.05;;;;;;;;;;5082865;28;20049;-84
2022/05/19 05:56:34;;;;;;;5.85;2.47;;;;;;;;;;5063603;28;20129;-83
2022/05/19 05:59:01;;;;;;;4.45;2.30;;;;;;;;;;5064027;28;20044;-83
2022/05/19 06:01:28;;;;;;;4.20;2.53;;;;;;;;;;5063963;28;20108;-83
2022/05/19 06:03:56;;;;;;;6.95;2.45;;;;;;;;;;5064585;28;20048;-83
2022/05/19 06:06:25;;;;;;;7.68;2.50;;;;;;;;;;5082556;28;20465;-84
2022/05/19 06:08:52;;;;;;;3.95;2.55;;;;;;;;;;5064168;28;20460;-84
2022/05/19 06:11:19;;;;;;;3.38;2.17;;;;;;;;;;5062501;28;20045;-84
2022/05/19 06:13:49;;;;;;;5.25;2.40;;;;;;;;;;5054014;23;20464;-86
2022/05/19 06:16:16;;;;;;;7.53;2.55;;;;;;;;;;5062849;28;20048;-84
2022/05/19 06:18:43;;;;;;;12.00;3.20;;;;;;;;;;5073394;28;20127;-85
2022/05/19 06:21:10;;;;;;;9.25;2.95;;;;;;;;;;5048715;28;20053;-86
2022/05/19 06:23:39;;;;;;;6.13;2.65;;;;;;;;;;5055744;28;20072;-86
2022/05/19 06:26:06;;;;;;;7.18;2.40;;;;;;;;;;5048512;28;20112;-85
2022/05/19 06:28:34;;;;;;;5.40;2.50;;;;;;;;;;5056054;28;20497;-86
2022/05/19 06:31:01;;;;;;;5.32;2.63;;;;;;;;;;5056354;28;20071;-86
2022/05/19 06:33:29;;;;;;;7.85;2.80;;;;;;;;;;5049336;28;20064;-85
2022/05/19 06:35:56;;;;;;;13.85;3.13;;;;;;;;;;5053982;28;20084;-86
2022/05/19 06:38:24;;;;;;;5.97;2.58;;;;;;;;;;5049699;28;20128;-86
2022/05/19 06:40:51;;;;;;;9.63;2.70;;;;;;;;;;5054066;28;20067;-86
2022/05/19 06:43:24;;;;;;;13.23;2.38;;;;;;;;;;5048473;28;20132;-86
2022/05/19 06:45:52;;;;;;;14.20;2.97;;;;;;;;;;5054756;28;20056;-86
2022/05/19 06:48:19;;;;;;;19.27;2.70;;;;;;;;;;5048673;28;20098;-86
2022/05/19 06:50:46;;;;;;;13.85;3.20;;;;;;;;;;5055016;28;20517;-86
2022/05/19 06:53:26;;;;;;;16.15;2.75;;;;;;;;;;5049653;28;20067;-86
2022/05/19 06:55:53;;;;;;;9.95;2.47;;;;;;;;;;5053931;28;20073;-86
2022/05/19 06:58:20;;;;;;;15.98;2.88;;;;;;;;;;5048674;28;20073;-86
2022/05/19 07:00:48;;;;;;;11.65;2.53;;;;;;;;;;5055634;28;20072;-86
2022/05/19 07:03:15;;;;;;;17.45;2.90;;;;;;;;;;5048302;28;20473;-85
2022/05/19 07:05:42;;;;;;;7.68;2.38;;;;;;;;;;5054199;28;20497;-85
2022/05/19 07:08:09;;;;;;;12.77;2.60;;;;;;;;;;5047214;28;20080;-85
2022/05/19 07:10:37;;;;;;;9.60;2.60;;;;;;;;;;5055389;28;20107;-86
2022/05/19 07:13:06;;;;;;;9.30;2.17;;;;;;;;;;5057481;28;20061;-86
2022/05/19 07:15:34;;;;;;;7.32;2.45;;;;;;;;;;5076516;28;20053;-86
2022/05/19 07:18:01;;;;;;;4.70;1.30;;;;;;;;;;5057703;28;20051;-86
2022/05/19 07:20:43;;;;;;;5.10;2.30;;;;;;;;;;5058578;28;20113;-86
2022/05/19 07:23:19;;;;;;;8.32;1.90;;;;;;;;;;5074544;28;20056;-86
2022/05/19 07:25:47;;;;;;;4.93;1.50;;;;;;;;;;5057334;28;20060;-87
2022/05/19 07:28:15;;;;;;;4.35;1.02;;;;;;;;;;5057711;28;20087;-86
2022/05/19 07:30:46;;;;;;;5.57;1.33;;;;;;;;;;5058863;28;20386;-85
2022/05/19 07:33:15;;;;;;;2.78;1.52;;;;;;;;;;5058251;28;20486;-85
2022/05/19 07:35:45;;;;;;;1.98;1.10;;;;;;;;;;5061405;28;20049;-86
2022/05/19 07:38:12;;;;;;;3.55;1.15;;;;;;;;;;5076703;28;20055;-86
2022/05/19 07:40:39;;;;;;;2.38;1.05;;;;;;;;;;5074211;28;20076;-88
2022/05/19 07:45:52;;;;;;;1.33;1.00;;;;;;;;;;5083289;28;20076;-85
2022/05/19 07:48:19;;;;;;;4.03;1.23;;;;;;;;;;5085870;28;20421;-87
2022/05/19 07:50:46;;;;;;;8.32;1.67;;;;;;;;;;5057306;28;20048;-85
2022/05/19 07:53:14;;;;;;;3.88;1.20;;;;;;;;;;5075015;28;20084;-85
2022/05/19 07:55:41;;;;;;;2.35;0.90;;;;;;;;;;5056400;28;20097;-86
2022/05/19 07:58:08;;;;;;;1.50;0.98;;;;;;;;;;5057159;28;20044;-86
2022/05/19 08:00:35;;;;;;;2.88;1.13;;;;;;;;;;5076361;28;20409;-85
2022/05/19 08:03:02;;;;;;;3.50;1.20;;;;;;;;;;5057662;28;20090;-85
2022/05/19 08:05:29;;;;;;;3.15;0.98;;;;;;;;;;5074476;28;20181;-85
2022/05/19 08:07:57;;;;;;;4.30;1.33;;;;;;;;;;5077058;28;20509;-85
2022/05/19 08:10:24;;;;;;;5.53;1.40;;;;;;;;;;5056618;28;20127;-85
2022/05/19 08:15:42;;;;;;;4.00;1.20;;;;;;;;;;5074769;28;20053;-87
2022/05/19 08:18:14;;;;;;;3.72;1.10;;;;;;;;;;5057571;28;20569;-87
2022/05/19 08:20:45;;;;;;;5.28;1.67;;;;;;;;;;5060832;28;20064;-87
2022/05/19 08:23:18;;;;;;;10.70;1.27;;;;;;;;;;5055720;28;20072;-86
2022/05/19 08:25:46;;;;;;;2.58;1.05;;;;;;;;;;5055682;28;20102;-86
2022/05/19 08:28:14;;;;;;;3.85;1.17;;;;;;;;;;5056917;28;20509;-86
2022/05/19 08:30:45;;;;;;;13.88;2.63;;;;;;;;;;5057447;28;20469;-85
2022/05/19 08:33:12;;;;;;;6.07;2.00;;;;;;;;;;5059574;28;20515;-86
2022/05/19 08:35:40;;;;;;;6.22;1.75;;;;;;;;;;5075181;28;20064;-85
2022/05/19 08:38:08;;;;;;;4.78;1.48;;;;;;;;;;5067531;28;20465;-86
2022/05/19 08:40:43;;;;;;;2.28;0.95;;;;;;;;;;5059003;28;20131;-87
2022/05/19 08:43:12;;;;;;;5.03;1.70;;;;;;;;;;5076612;28;20493;-86
2022/05/19 08:45:41;;;;;;;2.42;1.00;;;;;;;;;;5059156;28;20045;-86
2022/05/19 08:48:14;;;;;;;4.53;1.52;;;;;;;;;;5059123;28;20049;-87
2022/05/19 08:50:47;;;;;;;2.13;1.10;;;;;;;;;;5059099;28;20051;-88
2022/05/19 08:53:14;;;;;;;3.78;0.90;;;;;;;;;;5058491;28;20072;-89
2022/05/19 08:55:42;;;;;;;3.05;1.10;;;;;;;;;;5059140;28;20040;-85
2022/05/19 08:58:13;;;;;;;2.60;0.90;;;;;;;;;;5059440;28;20087;-85
2022/05/19 09:00:46;;;;;;;0.90;0.90;;;;;;;;;;5059215;28;20048;-85
2022/05/19 09:03:22;;;;;;;1.02;0.70;;;;;;;;;;5059964;28;20095;-84
2022/05/19 09:06:06;;;;;;;3.20;0.68;;;;;;;;;;5077443;28;20561;-83
2022/05/19 09:08:52;;;;;;;3.13;1.08;;;;;;;;;;5059475;28;20090;-85
2022/05/19 09:11:21;;;;;;;3.53;1.20;;;;;;;;;;5060371;28;20051;-84
2022/05/19 09:13:57;;;;;;;3.75;1.10;;;;;;;;;;5059912;28;20052;-84
2022/05/19 09:16:26;;;;;;;1.65;0.73;;;;;;;;;;5063021;28;20083;-85
2022/05/19 09:19:03;;;;;;;2.72;0.98;;;;;;;;;;5059687;28;20045;-85
2022/05/19 09:21:31;;;;;;;1.42;0.70;;;;;;;;;;5060091;28;20576;-84
2022/05/19 09:23:58;;;;;;;1.85;0.60;;;;;;;;;;5080118;28;20079;-85
2022/05/19 09:26:28;;;;;;;1.85;0.70;;;;;;;;;;5079534;28;20044;-85
2022/05/19 09:28:56;;;;;;;1.13;0.65;;;;;;;;;;5059913;28;20044;-86
2022/05/19 09:31:37;;;;;;;4.45;1.23;;;;;;;;;;5058211;28;20090;-88
2022/05/19 09:34:06;;;;;;;3.58;0.70;;;;;;;;;;5057922;28;20076;-88
2022/05/19 09:36:38;;;;;;;2.35;0.60;;;;;;;;;;5057720;28;20044;-88
2022/05/19 09:39:06;;;;;;;3.25;0.85;;;;;;;;;;5057680;28;20044;-87
2022/05/19 09:41:37;;;;;;;1.48;0.80;;;;;;;;;;5057959;28;20489;-86
2022/05/19 09:44:05;;;;;;;4.45;1.05;;;;;;;;;;5076147;28;20460;-86
2022/05/19 09:46:50;;;;;;;2.90;1.15;;;;;;;;;;5059005;28;20048;-87
2022/05/19 09:49:23;;;;;;;3.63;1.08;;;;;;;;;;5056996;28;20128;-87
2022/05/19 09:51:51;;;;;;;1.02;0.90;;;;;;;;;;5057990;28;20040;-86
2022/05/19 09:54:19;;;;;;;4.10;0.68;;;;;;;;;;5058234;28;20053;-86
2022/05/19 09:56:48;;;;;;;0.98;0.82;;;;;;;;;;5077620;28;20044;-86
2022/05/19 09:59:20;;;;;;;7.18;1.80;;;;;;;;;;5077117;28;20481;-85
2022/05/19 10:01:48;;;;;;;12.30;1.65;;;;;;;;;;5077561;28;20135;-87
2022/05/19 10:04:19;;;;;;;0.70;0.70;;;;;;;;;;5058374;28;20098;-86
2022/05/19 10:06:51;;;;;;;1.52;0.90;;;;;;;;;;5057814;28;20194;-87
2022/05/19 10:09:30;;;;;;;3.08;0.57;;;;;;;;;;5058384;28;20049;-87
2022/05/19 10:12:12;;;;;;;1.02;0.93;;;;;;;;;;5057696;28;20135;-87
2022/05/19 10:14:43;;;;;;;5.32;1.20;;;;;;;;;;5057838;28;20139;-89
2022/05/19 10:17:30;;;;;;;2.15;0.60;;;;;;;;;;5060464;28;20078;-86
2022/05/19 10:20:18;;;;;;;3.45;0.80;;;;;;;;;;5076603;28;20505;-88
2022/05/19 10:23:16;;;;;;;2.78;1.00;;;;;;;;;;5075901;28;20055;-88
2022/05/19 10:25:49;;;;;;;1.00;0.70;;;;;;;;;;5057901;28;20080;-86
2022/05/19 10:31:13;;;;;;;5.95;0.80;;;;;;;;;;5076581;28;20142;-88
2022/05/19 10:33:43;;;;;;;2.42;0.70;;;;;;;;;;5059469;28;20133;-87
2022/05/19 10:36:16;;;;;;;0.80;0.75;;;;;;;;;;5060273;28;20068;-87
2022/05/19 10:38:43;;;;;;;;;;;;;;;;;;5059304;28;20094;-87
2022/05/19 10:41:18;;;;;;;1.67;0.60;;;;;;;;;;5083032;28;20382;-88
2022/05/19 10:43:53;;;;;;;1.90;0.70;;;;;;;;;;5063852;28;20072;-86
2022/05/19 10:46:23;;;;;;;2.65;0.70;;;;;;;;;;5075093;28;20473;-88
2022/05/19 10:49:01;;;;;;;1.15;0.60;;;;;;;;;;5057708;28;20045;-88
2022/05/19 10:51:31;;;;;;;2.67;0.65;;;;;;;;;;5057451;28;20486;-88
2022/05/19 10:54:11;;;;;;;0.85;0.60;;;;;;;;;;5058018;28;20048;-87
2022/05/19 10:56:38;;;;;;;2.33;1.10;;;;;;;;;;5088823;28;20051;-86
2022/05/19 10:59:29;;;;;;;4.53;0.70;;;;;;;;;;5069233;28;20052;-87
2022/05/19 11:01:59;;;;;;;2.95;1.00;;;;;;;;;;5057367;28;20052;-88
2022/05/19 11:04:29;;;;;;;2.00;0.70;;;;;;;;;;5057307;28;20056;-85
2022/05/19 11:07:05;;;;;;;2.25;0.85;;;;;;;;;;5057866;28;20056;-84
2022/05/19 11:09:35;;;;;;;3.28;1.17;;;;;;;;;;5056637;28;20049;-85
2022/05/19 11:12:25;;;;;;;0.90;0.90;;;;;;;;;;5056672;28;20097;-86
2022/05/19 11:15:12;;;;;;;0.70;0.70;;;;;;;;;;5052536;28;20053;-88
2022/05/19 11:18:03;;;;;;;2.33;0.90;;;;;;;;;;5050266;28;20052;-86
2022/05/19 11:20:39;;;;;;;9.35;1.63;;;;;;;;;;5053947;28;20091;-86
2022/05/19 11:23:13;;;;;;;1.52;1.00;;;;;;;;;;5046162;28;20056;-86
2022/05/19 11:28:32;;;;;;;4.15;1.10;;;;;;;;;;5053129;28;19924;-88
2022/05/19 11:31:02;;;;;;;3.92;0.95;;;;;;;;;;5051686;28;20132;-88
2022/05/19 11:33:39;;;;;;;4.80;1.25;;;;;;;;;;5047428;28;20075;-86
2022/05/19 11:36:27;;;;;;;1.27;0.80;;;;;;;;;;5057763;28;20045;-86
2022/05/19 11:38:58;;;;;;;4.18;1.00;;;;;;;;;;5067505;28;20457;-89
2022/05/19 11:41:29;;;;;;;3.40;1.13;;;;;;;;;;5056112;28;20080;-87
2022/05/19 11:44:10;;;;;;;1.77;0.75;;;;;;;;;;5068619;22;20452;-82
2022/05/19 11:46:56;;;;;;;11.32;1.50;;;;;;;;;;5055801;28;20131;-81
2022/05/19 11:55:40;;;;;;;3.03;1.20;;;;;;;;;;5078565;22;20145;-81
2022/05/19 11:58:19;;;;;;;5.55;1.40;;;;;;;;;;5071476;28;20052;-82
2022/05/19 12:00:56;;;;;;;1.77;1.00;;;;;;;;;;5078179;28;20461;-84
2022/05/19 12:03:28;;;;;;;1.95;1.10;;;;;;;;;;5078928;28;20497;-82
2022/05/19 12:05:58;;;;;;;4.38;1.10;;;;;;;;;;5077468;28;20098;-83
2022/05/19 12:08:31;;;;;;;2.78;1.00;;;;;;;;;;5076663;28;20069;-81
2022/05/19 12:10:58;;;;;;;;;;;;;;;;;;5079563;28;20122;-82
2022/05/19 12:13:33;;;;;;;1.08;1.00;;;;;;;;;;5083089;28;20389;-82
2022/05/19 12:16:10;;;;;;;3.00;0.90;;;;;;;;;;5081385;28;20102;-81
2022/05/19 12:18:42;;;;;;;1.50;0.98;;;;;;;;;;5082192;28;20491;-82
2022/05/19 12:21:09;;;;;;;3.85;1.20;;;;;;;;;;5080351;28;20497;-80
2022/05/19 12:23:41;;;;;;;1.92;1.00;;;;;;;;;;5082417;28;20068;-82
2022/05/19 12:26:18;;;;;;;6.20;1.20;;;;;;;;;;5081115;28;20048;-82
2022/05/19 12:28:45;;;;;;;3.03;0.95;;;;;;;;;;5079638;28;20104;-80
2022/05/19 12:34:10;;;;;;;5.40;1.30;;;;;;;;;;5081701;28;20049;-82
2022/05/19 12:36:45;;;;;;;10.07;1.30;;;;;;;;;;5081544;28;20109;-81
2022/05/19 12:39:18;;;;;;;3.55;1.17;;;;;;;;;;5082172;28;20132;-80
2022/05/19 12:41:48;;;;;;;8.60;1.50;;;;;;;;;;5079888;28;20082;-81
2022/05/19 12:44:34;;;;;;;11.55;1.55;;;;;;;;;;5081326;28;20057;-80
2022/05/19 12:47:13;;;;;;;11.98;2.47;;;;;;;;;;5079158;28;20087;-81
2022/05/19 12:50:00;;;;;;;4.72;1.10;;;;;;;;;;5082177;28;20166;-83
2022/05/19 12:52:46;;;;;;;2.75;1.20;;;;;;;;;;5078377;28;20049;-81
2022/05/19 12:55:26;;;;;;;2.53;1.60;;;;;;;;;;5084227;28;20049;-81
2022/05/19 12:57:54;;;;;;;2.25;1.40;;;;;;;;;;5077217;28;20084;-81
2022/05/19 13:00:21;;;;;;;16.20;2.40;;;;;;;;;;5080487;28;20094;-81
2022/05/19 13:03:06;;;;;;;9.30;1.10;;;;;;;;;;5080669;28;20078;-82
2022/05/19 13:05:39;;;;;;;3.50;0.85;;;;;;;;;;5083196;28;20076;-82
2022/05/19 13:08:12;;;;;;;3.88;1.00;;;;;;;;;;5083260;28;20060;-83
2022/05/19 13:10:41;;;;;;;7.17;1.47;;;;;;;;;;5082084;28;20048;-82
2022/05/19 13:13:11;;;;;;;3.08;1.20;;;;;;;;;;5081420;28;20424;-82
2022/05/19 13:16:09;;;;;;;1.48;1.10;;;;;;;;;;5082498;28;20144;-83
2022/05/19 13:18:37;;;;;;;3.08;1.20;;;;;;;;;;5066888;28;20052;-83
2022/05/19 13:21:06;;;;;;;4.65;1.20;;;;;;;;;;5066447;28;20052;-82
2022/05/19 13:23:37;;;;;;;1.73;0.93;;;;;;;;;;5081434;28;20079;-84
2022/05/19 13:26:08;;;;;;;1.55;1.00;;;;;;;;;;5074312;28;20072;-82
2022/05/19 13:31:23;;;;;;;10.93;1.30;;;;;;;;;;5081661;28;20084;-81
2022/05/19 13:33:52;;;;;;;3.25;0.80;;;;;;;;;;5082997;28;20067;-82
2022/05/19 13:36:36;;;;;;;3.05;1.00;;;;;;;;;;5099130;28;20049;-82
2022/05/19 13:39:08;;;;;;;4.00;0.90;;;;;;;;;;5099295;28;20040;-81
2022/05/19 13:41:41;;;;;;;9.10;2.75;;;;;;;;;;5099464;28;20036;-82
2022/05/19 13:44:10;;;;;;;4.25;1.00;;;;;;;;;;5100261;28;20040;-83
2022/05/19 13:46:38;;;;;;;5.72;0.95;;;;;;;;;;5090604;28;20041;-85
2022/05/19 13:49:10;;;;;;;2.67;0.88;;;;;;;;;;5080924;28;20094;-81
2022/05/19 13:51:41;;;;;;;5.70;1.75;;;;;;;;;;5080885;28;20105;-81
2022/05/19 13:54:10;;;;;;;0.98;0.88;;;;;;;;;;5078535;28;20083;-81
2022/05/19 13:56:47;;;;;;;7.03;1.13;;;;;;;;;;5080069;28;20111;-82
2022/05/19 13:59:17;;;;;;;5.13;1.20;;;;;;;;;;5081907;28;20048;-82
2022/05/19 14:01:45;;;;;;;3.28;0.95;;;;;;;;;;5081230;28;20075;-82
2022/05/19 14:04:15;;;;;;;5.78;0.90;;;;;;;;;;5079931;28;20139;-81
2022/05/19 14:06:42;;;;;;;1.90;0.85;;;;;;;;;;5080026;28;20084;-81
2022/05/19 14:09:21;;;;;;;4.65;2.47;;;;;;;;;;5076753;28;20123;-82
2022/05/19 14:12:07;;;;;;;2.58;1.05;;;;;;;;;;5079040;28;20440;-83
2022/05/19 14:14:34;;;;;;;2.63;1.00;;;;;;;;;;5081785;28;20044;-83
2022/05/19 14:17:11;;;;;;;5.53;1.10;;;;;;;;;;5081064;28;20412;-81
2022/05/19 14:19:39;;;;;;;5.32;0.75;;;;;;;;;;5082296;28;20053;-82
2022/05/19 14:22:06;;;;;;;1.77;0.60;;;;;;;;;;5079928;28;20056;-83
2022/05/19 14:24:34;;;;;;;6.78;1.20;;;;;;;;;;5080292;28;20083;-82
2022/05/19 14:27:01;;;;;;;4.10;1.02;;;;;;;;;;5081734;28;20052;-84
2022/05/19 14:29:31;;;;;;;1.50;0.70;;;;;;;;;;5080094;28;20087;-84
2022/05/19 14:32:00;;;;;;;3.50;0.93;;;;;;;;;;5080915;28;20132;-82
2022/05/19 14:34:37;;;;;;;9.73;1.05;;;;;;;;;;5079097;28;20054;-83
2022/05/19 14:37:16;;;;;;;2.75;0.82;;;;;;;;;;5071027;28;20425;-82
2022/05/19 14:39:48;;;;;;;4.82;1.33;;;;;;;;;;5077735;28;20090;-82
2022/05/19 14:45:15;;;;;;;2.28;0.77;;;;;;;;;;5080066;28;20048;-83
2022/05/19 14:47:47;;;;;;;0.80;0.80;;;;;;;;;;5079274;28;20493;-82
2022/05/19 14:50:15;;;;;;;4.30;1.00;;;;;;;;;;5078518;28;20049;-81
2022/05/19 14:52:45;;;;;;;12.43;1.00;;;;;;;;;;5080288;28;20056;-82
2022/05/19 14:55:24;;;;;;;4.38;0.93;;;;;;;;;;5078973;28;20045;-87
2022/05/19 14:57:54;;;;;;;13.15;1.48;;;;;;;;;;5042884;28;20049;-82
2022/05/19 15:00:22;;;;;;;1.77;0.95;;;;;;;;;;5041368;28;20053;-83
2022/05/19 15:02:50;;;;;;;1.92;1.52;;;;;;;;;;5041303;28;20076;-81
2022/05/19 15:05:18;;;;;;;14.23;2.67;;;;;;;;;;5042769;28;20060;-82
2022/05/19 15:07:50;;;;;;;4.70;1.17;;;;;;;;;;5042427;28;20080;-83
2022/05/19 15:10:24;;;;;;;5.90;1.20;;;;;;;;;;5043446;28;20120;-83
2022/05/19 15:12:52;;;;;;;4.85;1.15;;;;;;;;;;5060438;28;20099;-82
2022/05/19 15:15:19;;;;;;;5.57;1.02;;;;;;;;;;5041542;28;20140;-83
2022/05/19 15:17:47;;;;;;;5.82;0.77;;;;;;;;;;5041677;28;20094;-82
2022/05/19 15:20:20;;;;;;;0.80;0.80;;;;;;;;;;5042254;28;20140;-82
2022/05/19 15:22:51;;;;;;;1.10;1.00;;;;;;;;;;5041103;28;20481;-82